sensor_id;sensor_type;location;lat;lon;timestamp;P1;durP1;ratioP1;P2;durP2;ratioP2
62709;SDS011;48770;51.624;5.886;2023-06-26T00:01:41;5.57;;;5.07;;
62709;SDS011;48770;51.624;5.886;2023-06-26T00:04:07;5.70;;;4.60;;
62709;SDS011;48770;51.624;5.886;2023-06-26T00:06:33;5.07;;;4.53;;
62709;SDS011;48770;51.624;5.886;2023-06-26T00:08:58;4.65;;;4.25;;
62709;SDS011;48770;51.624;5.886;2023-06-26T00:11:24;5.20;;;4.75;;
62709;SDS011;48770;51.624;5.886;2023-06-26T00:13:50;4.78;;;4.32;;
62709;SDS011;48770;51.624;5.886;2023-06-26T00:16:15;4.80;;;4.40;;
62709;SDS011;48770;51.624;5.886;2023-06-26T00:18:41;4.97;;;4.40;;
62709;SDS011;48770;51.624;5.886;2023-06-26T00:21:06;5.20;;;4.60;;
62709;SDS011;48770;51.624;5.886;2023-06-26T00:23:31;5.07;;;4.57;;
62709;SDS011;48770;51.624;5.886;2023-06-26T00:25:58;6.88;;;4.82;;
62709;SDS011;48770;51.624;5.886;2023-06-26T00:28:23;5.03;;;4.53;;
62709;SDS011;48770;51.624;5.886;2023-06-26T00:30:48;4.87;;;4.47;;
62709;SDS011;48770;51.624;5.886;2023-06-26T00:33:13;5.23;;;4.67;;
62709;SDS011;48770;51.624;5.886;2023-06-26T00:35:39;5.25;;;4.75;;
62709;SDS011;48770;51.624;5.886;2023-06-26T00:38:04;6.00;;;4.73;;
62709;SDS011;48770;51.624;5.886;2023-06-26T00:40:29;5.10;;;4.60;;
62709;SDS011;48770;51.624;5.886;2023-06-26T00:42:55;4.82;;;4.43;;
62709;SDS011;48770;51.624;5.886;2023-06-26T00:45:20;5.07;;;4.57;;
62709;SDS011;48770;51.624;5.886;2023-06-26T00:47:45;7.07;;;4.68;;
62709;SDS011;48770;51.624;5.886;2023-06-26T00:50:11;5.47;;;4.97;;
62709;SDS011;48770;51.624;5.886;2023-06-26T00:52:40;6.05;;;4.82;;
62709;SDS011;48770;51.624;5.886;2023-06-26T00:55:06;11.90;;;4.65;;
62709;SDS011;48770;51.624;5.886;2023-06-26T00:57:32;6.38;;;4.88;;
62709;SDS011;48770;51.624;5.886;2023-06-26T00:59:57;4.90;;;4.45;;
62709;SDS011;48770;51.624;5.886;2023-06-26T01:02:22;6.20;;;4.45;;
62709;SDS011;48770;51.624;5.886;2023-06-26T01:04:51;4.97;;;4.47;;
62709;SDS011;48770;51.624;5.886;2023-06-26T01:07:18;4.97;;;4.47;;
62709;SDS011;48770;51.624;5.886;2023-06-26T01:09:46;5.53;;;4.45;;
62709;SDS011;48770;51.624;5.886;2023-06-26T01:12:12;6.50;;;5.03;;
62709;SDS011;48770;51.624;5.886;2023-06-26T01:14:37;5.43;;;4.78;;
62709;SDS011;48770;51.624;5.886;2023-06-26T01:17:02;6.10;;;4.70;;
62709;SDS011;48770;51.624;5.886;2023-06-26T01:19:29;5.90;;;4.40;;
62709;SDS011;48770;51.624;5.886;2023-06-26T01:22:00;5.28;;;4.78;;
62709;SDS011;48770;51.624;5.886;2023-06-26T01:24:39;5.35;;;4.88;;
62709;SDS011;48770;51.624;5.886;2023-06-26T01:27:09;5.60;;;5.10;;
62709;SDS011;48770;51.624;5.886;2023-06-26T01:29:36;6.70;;;5.00;;
62709;SDS011;48770;51.624;5.886;2023-06-26T01:32:03;6.03;;;4.53;;
62709;SDS011;48770;51.624;5.886;2023-06-26T01:34:28;5.30;;;4.22;;
62709;SDS011;48770;51.624;5.886;2023-06-26T01:36:54;6.10;;;4.65;;
62709;SDS011;48770;51.624;5.886;2023-06-26T01:39:20;5.20;;;4.70;;
62709;SDS011;48770;51.624;5.886;2023-06-26T01:41:45;5.47;;;4.82;;
62709;SDS011;48770;51.624;5.886;2023-06-26T01:46:54;4.93;;;4.45;;
62709;SDS011;48770;51.624;5.886;2023-06-26T01:52:15;5.30;;;4.78;;
62709;SDS011;48770;51.624;5.886;2023-06-26T01:54:54;4.75;;;4.03;;
62709;SDS011;48770;51.624;5.886;2023-06-26T01:57:23;6.22;;;4.50;;
62709;SDS011;48770;51.624;5.886;2023-06-26T01:59:51;5.32;;;4.40;;
62709;SDS011;48770;51.624;5.886;2023-06-26T02:02:17;5.50;;;4.82;;
62709;SDS011;48770;51.624;5.886;2023-06-26T02:04:42;5.22;;;4.32;;
62709;SDS011;48770;51.624;5.886;2023-06-26T02:07:08;5.03;;;4.53;;
62709;SDS011;48770;51.624;5.886;2023-06-26T02:09:34;7.10;;;5.18;;
62709;SDS011;48770;51.624;5.886;2023-06-26T02:12:03;5.60;;;4.60;;
62709;SDS011;48770;51.624;5.886;2023-06-26T02:14:28;4.70;;;4.30;;
62709;SDS011;48770;51.624;5.886;2023-06-26T02:16:53;4.70;;;4.30;;
62709;SDS011;48770;51.624;5.886;2023-06-26T02:19:19;5.00;;;4.50;;
62709;SDS011;48770;51.624;5.886;2023-06-26T02:21:47;4.80;;;4.30;;
62709;SDS011;48770;51.624;5.886;2023-06-26T02:24:14;5.47;;;4.57;;
62709;SDS011;48770;51.624;5.886;2023-06-26T02:26:42;5.53;;;4.35;;
62709;SDS011;48770;51.624;5.886;2023-06-26T02:29:07;4.53;;;4.13;;
62709;SDS011;48770;51.624;5.886;2023-06-26T02:31:33;4.53;;;4.13;;
62709;SDS011;48770;51.624;5.886;2023-06-26T02:34:01;4.77;;;4.37;;
62709;SDS011;48770;51.624;5.886;2023-06-26T02:36:26;4.45;;;4.05;;
62709;SDS011;48770;51.624;5.886;2023-06-26T02:38:51;5.10;;;4.10;;
62709;SDS011;48770;51.624;5.886;2023-06-26T02:41:17;4.60;;;4.20;;
62709;SDS011;48770;51.624;5.886;2023-06-26T02:43:42;6.33;;;4.20;;
62709;SDS011;48770;51.624;5.886;2023-06-26T02:46:07;4.65;;;4.25;;
62709;SDS011;48770;51.624;5.886;2023-06-26T02:48:32;4.43;;;3.93;;
62709;SDS011;48770;51.624;5.886;2023-06-26T02:50:58;5.40;;;4.23;;
62709;SDS011;48770;51.624;5.886;2023-06-26T02:53:24;4.30;;;3.90;;
62709;SDS011;48770;51.624;5.886;2023-06-26T02:55:49;3.70;;;3.40;;
62709;SDS011;48770;51.624;5.886;2023-06-26T02:58:15;4.07;;;3.67;;
62709;SDS011;48770;51.624;5.886;2023-06-26T03:00:40;4.28;;;3.80;;
62709;SDS011;48770;51.624;5.886;2023-06-26T03:03:06;4.03;;;3.70;;
62709;SDS011;48770;51.624;5.886;2023-06-26T03:05:32;7.07;;;3.78;;
62709;SDS011;48770;51.624;5.886;2023-06-26T03:07:57;4.10;;;3.70;;
62709;SDS011;48770;51.624;5.886;2023-06-26T03:10:22;3.63;;;3.17;;
62709;SDS011;48770;51.624;5.886;2023-06-26T03:12:49;3.90;;;3.50;;
62709;SDS011;48770;51.624;5.886;2023-06-26T03:15:14;4.13;;;3.72;;
62709;SDS011;48770;51.624;5.886;2023-06-26T03:17:39;5.60;;;3.80;;
62709;SDS011;48770;51.624;5.886;2023-06-26T03:20:05;6.28;;;3.83;;
62709;SDS011;48770;51.624;5.886;2023-06-26T03:22:32;4.07;;;3.55;;
62709;SDS011;48770;51.624;5.886;2023-06-26T03:24:58;3.58;;;3.28;;
62709;SDS011;48770;51.624;5.886;2023-06-26T03:27:24;5.30;;;3.45;;
62709;SDS011;48770;51.624;5.886;2023-06-26T03:29:49;5.28;;;3.88;;
62709;SDS011;48770;51.624;5.886;2023-06-26T03:32:15;4.30;;;3.65;;
62709;SDS011;48770;51.624;5.886;2023-06-26T03:34:40;3.83;;;3.40;;
62709;SDS011;48770;51.624;5.886;2023-06-26T03:37:05;4.43;;;3.67;;
62709;SDS011;48770;51.624;5.886;2023-06-26T03:39:30;3.90;;;3.42;;
62709;SDS011;48770;51.624;5.886;2023-06-26T03:41:56;3.50;;;3.20;;
62709;SDS011;48770;51.624;5.886;2023-06-26T03:44:25;5.07;;;3.08;;
62709;SDS011;48770;51.624;5.886;2023-06-26T03:46:50;4.38;;;3.03;;
62709;SDS011;48770;51.624;5.886;2023-06-26T03:49:15;5.50;;;2.93;;
62709;SDS011;48770;51.624;5.886;2023-06-26T03:51:41;5.20;;;3.60;;
62709;SDS011;48770;51.624;5.886;2023-06-26T03:54:06;5.22;;;2.78;;
62709;SDS011;48770;51.624;5.886;2023-06-26T03:56:31;3.58;;;3.08;;
62709;SDS011;48770;51.624;5.886;2023-06-26T03:58:57;3.15;;;2.88;;
62709;SDS011;48770;51.624;5.886;2023-06-26T04:01:22;4.25;;;3.22;;
62709;SDS011;48770;51.624;5.886;2023-06-26T04:03:48;3.95;;;3.15;;
62709;SDS011;48770;51.624;5.886;2023-06-26T04:06:13;3.92;;;3.22;;
62709;SDS011;48770;51.624;5.886;2023-06-26T04:08:38;4.07;;;3.13;;
62709;SDS011;48770;51.624;5.886;2023-06-26T04:11:04;4.90;;;3.33;;
62709;SDS011;48770;51.624;5.886;2023-06-26T04:13:29;3.20;;;2.90;;
62709;SDS011;48770;51.624;5.886;2023-06-26T04:15:54;3.80;;;3.00;;
62709;SDS011;48770;51.624;5.886;2023-06-26T04:18:19;4.95;;;2.83;;
62709;SDS011;48770;51.624;5.886;2023-06-26T04:21:03;3.33;;;3.03;;
62709;SDS011;48770;51.624;5.886;2023-06-26T04:23:38;5.15;;;3.20;;
62709;SDS011;48770;51.624;5.886;2023-06-26T04:26:05;3.97;;;3.00;;
62709;SDS011;48770;51.624;5.886;2023-06-26T04:28:34;2.95;;;2.67;;
62709;SDS011;48770;51.624;5.886;2023-06-26T04:31:01;9.32;;;3.33;;
62709;SDS011;48770;51.624;5.886;2023-06-26T04:33:28;3.30;;;2.95;;
62709;SDS011;48770;51.624;5.886;2023-06-26T04:35:53;3.08;;;2.70;;
62709;SDS011;48770;51.624;5.886;2023-06-26T04:38:19;4.90;;;2.63;;
62709;SDS011;48770;51.624;5.886;2023-06-26T04:40:44;5.65;;;2.65;;
62709;SDS011;48770;51.624;5.886;2023-06-26T04:43:10;4.67;;;2.80;;
62709;SDS011;48770;51.624;5.886;2023-06-26T04:45:35;4.50;;;2.65;;
62709;SDS011;48770;51.624;5.886;2023-06-26T04:48:01;3.53;;;2.65;;
62709;SDS011;48770;51.624;5.886;2023-06-26T04:50:27;4.13;;;2.80;;
62709;SDS011;48770;51.624;5.886;2023-06-26T04:52:54;4.07;;;2.63;;
62709;SDS011;48770;51.624;5.886;2023-06-26T04:55:23;3.60;;;2.47;;
62709;SDS011;48770;51.624;5.886;2023-06-26T04:57:49;7.97;;;2.55;;
62709;SDS011;48770;51.624;5.886;2023-06-26T05:00:15;4.85;;;3.15;;
62709;SDS011;48770;51.624;5.886;2023-06-26T05:02:41;4.50;;;2.75;;
62709;SDS011;48770;51.624;5.886;2023-06-26T05:05:06;5.75;;;2.55;;
62709;SDS011;48770;51.624;5.886;2023-06-26T05:07:31;5.60;;;2.90;;
62709;SDS011;48770;51.624;5.886;2023-06-26T05:09:57;4.70;;;2.60;;
62709;SDS011;48770;51.624;5.886;2023-06-26T05:12:22;4.95;;;2.63;;
62709;SDS011;48770;51.624;5.886;2023-06-26T05:14:47;4.07;;;2.60;;
62709;SDS011;48770;51.624;5.886;2023-06-26T05:17:13;5.50;;;3.08;;
62709;SDS011;48770;51.624;5.886;2023-06-26T05:19:39;5.18;;;2.60;;
62709;SDS011;48770;51.624;5.886;2023-06-26T05:22:04;5.27;;;2.57;;
62709;SDS011;48770;51.624;5.886;2023-06-26T05:24:32;3.78;;;2.30;;
62709;SDS011;48770;51.624;5.886;2023-06-26T05:27:00;7.68;;;3.13;;
62709;SDS011;48770;51.624;5.886;2023-06-26T05:29:26;6.35;;;2.90;;
62709;SDS011;48770;51.624;5.886;2023-06-26T05:31:51;4.07;;;2.38;;
62709;SDS011;48770;51.624;5.886;2023-06-26T05:34:20;3.88;;;2.50;;
62709;SDS011;48770;51.624;5.886;2023-06-26T05:36:48;5.88;;;3.00;;
62709;SDS011;48770;51.624;5.886;2023-06-26T05:39:15;7.82;;;2.72;;
62709;SDS011;48770;51.624;5.886;2023-06-26T05:41:42;5.88;;;2.58;;
62709;SDS011;48770;51.624;5.886;2023-06-26T05:44:08;7.18;;;3.13;;
62709;SDS011;48770;51.624;5.886;2023-06-26T05:46:34;3.97;;;2.93;;
62709;SDS011;48770;51.624;5.886;2023-06-26T05:48:59;4.93;;;2.80;;
62709;SDS011;48770;51.624;5.886;2023-06-26T05:51:26;5.20;;;2.60;;
62709;SDS011;48770;51.624;5.886;2023-06-26T05:53:51;6.78;;;2.97;;
62709;SDS011;48770;51.624;5.886;2023-06-26T05:56:17;4.75;;;2.75;;
62709;SDS011;48770;51.624;5.886;2023-06-26T05:58:43;5.15;;;2.50;;
62709;SDS011;48770;51.624;5.886;2023-06-26T06:01:09;6.40;;;2.75;;
62709;SDS011;48770;51.624;5.886;2023-06-26T06:03:34;5.93;;;2.70;;
62709;SDS011;48770;51.624;5.886;2023-06-26T06:06:00;6.20;;;2.75;;
62709;SDS011;48770;51.624;5.886;2023-06-26T06:08:25;5.43;;;2.90;;
62709;SDS011;48770;51.624;5.886;2023-06-26T06:10:50;8.13;;;3.13;;
62709;SDS011;48770;51.624;5.886;2023-06-26T06:13:15;5.90;;;2.97;;
62709;SDS011;48770;51.624;5.886;2023-06-26T06:15:41;6.80;;;3.13;;
62709;SDS011;48770;51.624;5.886;2023-06-26T06:18:06;6.00;;;2.75;;
62709;SDS011;48770;51.624;5.886;2023-06-26T06:20:31;5.10;;;2.53;;
62709;SDS011;48770;51.624;5.886;2023-06-26T06:22:57;6.28;;;2.80;;
62709;SDS011;48770;51.624;5.886;2023-06-26T06:25:22;6.37;;;2.90;;
62709;SDS011;48770;51.624;5.886;2023-06-26T06:27:47;6.45;;;2.50;;
62709;SDS011;48770;51.624;5.886;2023-06-26T06:30:13;6.38;;;2.80;;
62709;SDS011;48770;51.624;5.886;2023-06-26T06:32:38;3.55;;;2.67;;
62709;SDS011;48770;51.624;5.886;2023-06-26T06:35:04;5.47;;;2.28;;
62709;SDS011;48770;51.624;5.886;2023-06-26T06:37:34;3.92;;;2.00;;
62709;SDS011;48770;51.624;5.886;2023-06-26T06:40:00;5.50;;;2.72;;
62709;SDS011;48770;51.624;5.886;2023-06-26T06:42:25;4.60;;;2.30;;
62709;SDS011;48770;51.624;5.886;2023-06-26T06:44:50;4.93;;;2.50;;
62709;SDS011;48770;51.624;5.886;2023-06-26T06:47:15;6.07;;;2.43;;
62709;SDS011;48770;51.624;5.886;2023-06-26T06:49:41;5.95;;;2.60;;
62709;SDS011;48770;51.624;5.886;2023-06-26T06:52:06;7.17;;;2.70;;
62709;SDS011;48770;51.624;5.886;2023-06-26T06:54:31;5.80;;;2.67;;
62709;SDS011;48770;51.624;5.886;2023-06-26T06:57:15;8.38;;;2.17;;
62709;SDS011;48770;51.624;5.886;2023-06-26T06:59:40;5.10;;;2.37;;
62709;SDS011;48770;51.624;5.886;2023-06-26T07:02:07;6.00;;;2.70;;
62709;SDS011;48770;51.624;5.886;2023-06-26T07:04:32;5.50;;;2.45;;
62709;SDS011;48770;51.624;5.886;2023-06-26T07:06:57;4.57;;;2.03;;
62709;SDS011;48770;51.624;5.886;2023-06-26T07:09:23;6.50;;;2.40;;
62709;SDS011;48770;51.624;5.886;2023-06-26T07:11:48;4.38;;;2.20;;
62709;SDS011;48770;51.624;5.886;2023-06-26T07:14:13;4.33;;;2.27;;
62709;SDS011;48770;51.624;5.886;2023-06-26T07:16:39;5.72;;;2.65;;
62709;SDS011;48770;51.624;5.886;2023-06-26T07:19:04;5.40;;;2.20;;
62709;SDS011;48770;51.624;5.886;2023-06-26T07:21:29;5.15;;;2.22;;
62709;SDS011;48770;51.624;5.886;2023-06-26T07:23:54;5.50;;;2.27;;
62709;SDS011;48770;51.624;5.886;2023-06-26T07:26:20;5.05;;;2.40;;
62709;SDS011;48770;51.624;5.886;2023-06-26T07:28:47;5.63;;;2.05;;
62709;SDS011;48770;51.624;5.886;2023-06-26T07:31:13;5.78;;;2.42;;
62709;SDS011;48770;51.624;5.886;2023-06-26T07:33:39;4.57;;;2.20;;
62709;SDS011;48770;51.624;5.886;2023-06-26T07:36:05;5.93;;;2.28;;
62709;SDS011;48770;51.624;5.886;2023-06-26T07:38:30;5.28;;;1.98;;
62709;SDS011;48770;51.624;5.886;2023-06-26T07:40:55;4.78;;;2.15;;
62709;SDS011;48770;51.624;5.886;2023-06-26T07:43:21;3.80;;;1.90;;
62709;SDS011;48770;51.624;5.886;2023-06-26T07:45:47;4.63;;;2.40;;
62709;SDS011;48770;51.624;5.886;2023-06-26T07:48:13;4.22;;;1.90;;
62709;SDS011;48770;51.624;5.886;2023-06-26T07:50:38;4.72;;;2.10;;
62709;SDS011;48770;51.624;5.886;2023-06-26T07:53:04;5.55;;;2.10;;
62709;SDS011;48770;51.624;5.886;2023-06-26T07:55:30;6.03;;;2.33;;
62709;SDS011;48770;51.624;5.886;2023-06-26T07:57:56;4.55;;;1.80;;
62709;SDS011;48770;51.624;5.886;2023-06-26T08:00:22;6.85;;;2.58;;
62709;SDS011;48770;51.624;5.886;2023-06-26T08:02:47;8.05;;;2.58;;
62709;SDS011;48770;51.624;5.886;2023-06-26T08:05:13;5.10;;;2.25;;
62709;SDS011;48770;51.624;5.886;2023-06-26T08:07:38;5.20;;;2.17;;
62709;SDS011;48770;51.624;5.886;2023-06-26T08:10:04;5.72;;;1.80;;
62709;SDS011;48770;51.624;5.886;2023-06-26T08:12:30;5.38;;;2.03;;
62709;SDS011;48770;51.624;5.886;2023-06-26T08:14:55;5.13;;;2.03;;
62709;SDS011;48770;51.624;5.886;2023-06-26T08:17:21;8.13;;;2.00;;
62709;SDS011;48770;51.624;5.886;2023-06-26T08:19:46;8.93;;;2.30;;
62709;SDS011;48770;51.624;5.886;2023-06-26T08:22:11;17.75;;;2.97;;
62709;SDS011;48770;51.624;5.886;2023-06-26T08:24:37;6.63;;;2.78;;
62709;SDS011;48770;51.624;5.886;2023-06-26T08:27:02;8.30;;;2.70;;
62709;SDS011;48770;51.624;5.886;2023-06-26T08:29:28;6.70;;;2.47;;
62709;SDS011;48770;51.624;5.886;2023-06-26T08:31:54;6.22;;;2.40;;
62709;SDS011;48770;51.624;5.886;2023-06-26T08:34:19;3.83;;;2.25;;
62709;SDS011;48770;51.624;5.886;2023-06-26T08:36:45;6.97;;;2.38;;
62709;SDS011;48770;51.624;5.886;2023-06-26T08:39:10;7.47;;;2.70;;
62709;SDS011;48770;51.624;5.886;2023-06-26T08:41:35;8.35;;;2.55;;
62709;SDS011;48770;51.624;5.886;2023-06-26T08:44:01;6.65;;;2.15;;
62709;SDS011;48770;51.624;5.886;2023-06-26T08:46:29;5.40;;;2.40;;
62709;SDS011;48770;51.624;5.886;2023-06-26T08:48:56;5.18;;;2.45;;
62709;SDS011;48770;51.624;5.886;2023-06-26T08:51:25;5.30;;;2.58;;
62709;SDS011;48770;51.624;5.886;2023-06-26T08:53:57;6.45;;;2.30;;
62709;SDS011;48770;51.624;5.886;2023-06-26T08:56:24;5.35;;;2.22;;
62709;SDS011;48770;51.624;5.886;2023-06-26T08:58:53;5.78;;;2.65;;
62709;SDS011;48770;51.624;5.886;2023-06-26T09:01:20;3.53;;;1.90;;
62709;SDS011;48770;51.624;5.886;2023-06-26T09:03:45;3.72;;;1.95;;
62709;SDS011;48770;51.624;5.886;2023-06-26T09:06:11;5.15;;;1.67;;
62709;SDS011;48770;51.624;5.886;2023-06-26T09:08:36;7.13;;;1.50;;
62709;SDS011;48770;51.624;5.886;2023-06-26T09:11:02;7.80;;;1.42;;
62709;SDS011;48770;51.624;5.886;2023-06-26T09:13:30;3.25;;;0.93;;
62709;SDS011;48770;51.624;5.886;2023-06-26T09:15:55;4.00;;;1.17;;
62709;SDS011;48770;51.624;5.886;2023-06-26T09:18:21;2.05;;;0.90;;
62709;SDS011;48770;51.624;5.886;2023-06-26T09:20:47;2.97;;;0.85;;
62709;SDS011;48770;51.624;5.886;2023-06-26T09:23:13;3.47;;;0.73;;
62709;SDS011;48770;51.624;5.886;2023-06-26T09:25:42;1.95;;;0.85;;
62709;SDS011;48770;51.624;5.886;2023-06-26T09:28:08;6.00;;;0.85;;
62709;SDS011;48770;51.624;5.886;2023-06-26T09:30:34;8.60;;;1.02;;
62709;SDS011;48770;51.624;5.886;2023-06-26T09:33:12;2.00;;;0.80;;
62709;SDS011;48770;51.624;5.886;2023-06-26T09:35:42;5.75;;;0.80;;
62709;SDS011;48770;51.624;5.886;2023-06-26T09:38:09;4.18;;;0.77;;
62709;SDS011;48770;51.624;5.886;2023-06-26T09:40:35;5.30;;;1.17;;
62709;SDS011;48770;51.624;5.886;2023-06-26T09:43:03;2.60;;;0.80;;
62709;SDS011;48770;51.624;5.886;2023-06-26T09:45:30;3.78;;;0.85;;
62709;SDS011;48770;51.624;5.886;2023-06-26T09:47:59;2.70;;;0.80;;
62709;SDS011;48770;51.624;5.886;2023-06-26T09:50:25;4.50;;;1.17;;
62709;SDS011;48770;51.624;5.886;2023-06-26T09:52:52;4.22;;;0.85;;
62709;SDS011;48770;51.624;5.886;2023-06-26T09:55:18;5.70;;;1.00;;
62709;SDS011;48770;51.624;5.886;2023-06-26T09:57:44;1.67;;;0.70;;
62709;SDS011;48770;51.624;5.886;2023-06-26T10:00:12;1.80;;;0.70;;
62709;SDS011;48770;51.624;5.886;2023-06-26T10:02:39;1.30;;;0.52;;
62709;SDS011;48770;51.624;5.886;2023-06-26T10:05:04;6.05;;;0.98;;
62709;SDS011;48770;51.624;5.886;2023-06-26T10:07:30;2.65;;;0.77;;
62709;SDS011;48770;51.624;5.886;2023-06-26T10:09:56;1.65;;;0.73;;
62709;SDS011;48770;51.624;5.886;2023-06-26T10:12:27;1.25;;;0.55;;
62709;SDS011;48770;51.624;5.886;2023-06-26T10:14:54;2.67;;;0.65;;
62709;SDS011;48770;51.624;5.886;2023-06-26T10:17:21;2.83;;;0.80;;
62709;SDS011;48770;51.624;5.886;2023-06-26T10:19:47;3.53;;;0.60;;
62709;SDS011;48770;51.624;5.886;2023-06-26T10:22:17;1.55;;;0.60;;
62709;SDS011;48770;51.624;5.886;2023-06-26T10:24:47;3.83;;;0.68;;
62709;SDS011;48770;51.624;5.886;2023-06-26T10:27:17;2.80;;;0.70;;
62709;SDS011;48770;51.624;5.886;2023-06-26T10:29:49;2.75;;;0.70;;
62709;SDS011;48770;51.624;5.886;2023-06-26T10:32:18;4.15;;;0.73;;
62709;SDS011;48770;51.624;5.886;2023-06-26T10:34:46;4.93;;;0.80;;
62709;SDS011;48770;51.624;5.886;2023-06-26T10:37:11;2.70;;;0.90;;
62709;SDS011;48770;51.624;5.886;2023-06-26T10:39:45;3.72;;;1.35;;
62709;SDS011;48770;51.624;5.886;2023-06-26T10:42:12;3.35;;;0.50;;
62709;SDS011;48770;51.624;5.886;2023-06-26T10:44:40;2.20;;;0.68;;
62709;SDS011;48770;51.624;5.886;2023-06-26T10:47:07;3.78;;;0.80;;
62709;SDS011;48770;51.624;5.886;2023-06-26T10:49:34;2.50;;;0.60;;
62709;SDS011;48770;51.624;5.886;2023-06-26T10:52:01;3.67;;;0.60;;
62709;SDS011;48770;51.624;5.886;2023-06-26T10:54:30;4.43;;;0.75;;
62709;SDS011;48770;51.624;5.886;2023-06-26T10:56:57;3.63;;;0.93;;
62709;SDS011;48770;51.624;5.886;2023-06-26T10:59:26;2.58;;;0.80;;
62709;SDS011;48770;51.624;5.886;2023-06-26T11:01:57;3.65;;;0.60;;
62709;SDS011;48770;51.624;5.886;2023-06-26T11:04:39;2.00;;;0.50;;
62709;SDS011;48770;51.624;5.886;2023-06-26T11:09:52;3.30;;;0.75;;
62709;SDS011;48770;51.624;5.886;2023-06-26T11:12:41;3.10;;;0.70;;
62709;SDS011;48770;51.624;5.886;2023-06-26T11:15:11;1.48;;;0.70;;
62709;SDS011;48770;51.624;5.886;2023-06-26T11:17:38;4.30;;;0.70;;
62709;SDS011;48770;51.624;5.886;2023-06-26T11:20:15;1.90;;;0.32;;
62709;SDS011;48770;51.624;5.886;2023-06-26T11:22:42;7.38;;;0.77;;
62709;SDS011;48770;51.624;5.886;2023-06-26T11:25:09;2.25;;;0.50;;
62709;SDS011;48770;51.624;5.886;2023-06-26T11:30:07;1.92;;;0.68;;
62709;SDS011;48770;51.624;5.886;2023-06-26T11:32:48;2.15;;;0.55;;
62709;SDS011;48770;51.624;5.886;2023-06-26T11:35:13;3.50;;;0.60;;
62709;SDS011;48770;51.624;5.886;2023-06-26T11:37:48;1.73;;;0.52;;
62709;SDS011;48770;51.624;5.886;2023-06-26T11:40:17;3.17;;;0.67;;
62709;SDS011;48770;51.624;5.886;2023-06-26T11:42:44;1.25;;;0.55;;
62709;SDS011;48770;51.624;5.886;2023-06-26T11:45:09;1.33;;;0.60;;
62709;SDS011;48770;51.624;5.886;2023-06-26T11:47:35;3.85;;;0.60;;
62709;SDS011;48770;51.624;5.886;2023-06-26T11:50:04;8.45;;;0.90;;
62709;SDS011;48770;51.624;5.886;2023-06-26T11:52:30;3.50;;;1.10;;
62709;SDS011;48770;51.624;5.886;2023-06-26T11:54:57;5.05;;;0.63;;
62709;SDS011;48770;51.624;5.886;2023-06-26T11:57:23;2.03;;;0.65;;
62709;SDS011;48770;51.624;5.886;2023-06-26T11:59:49;6.47;;;0.70;;
62709;SDS011;48770;51.624;5.886;2023-06-26T12:02:15;3.15;;;1.13;;
62709;SDS011;48770;51.624;5.886;2023-06-26T12:04:41;3.88;;;0.95;;
62709;SDS011;48770;51.624;5.886;2023-06-26T12:07:08;2.58;;;0.73;;
62709;SDS011;48770;51.624;5.886;2023-06-26T12:09:45;3.78;;;0.82;;
62709;SDS011;48770;51.624;5.886;2023-06-26T12:12:13;1.35;;;0.60;;
62709;SDS011;48770;51.624;5.886;2023-06-26T12:14:41;3.42;;;0.77;;
62709;SDS011;48770;51.624;5.886;2023-06-26T12:17:08;1.05;;;0.68;;
62709;SDS011;48770;51.624;5.886;2023-06-26T12:19:38;2.97;;;0.77;;
62709;SDS011;48770;51.624;5.886;2023-06-26T12:22:07;3.30;;;0.80;;
62709;SDS011;48770;51.624;5.886;2023-06-26T12:24:34;2.55;;;0.70;;
62709;SDS011;48770;51.624;5.886;2023-06-26T12:27:02;2.92;;;0.60;;
62709;SDS011;48770;51.624;5.886;2023-06-26T12:29:31;7.38;;;1.00;;
62709;SDS011;48770;51.624;5.886;2023-06-26T12:31:58;2.28;;;0.57;;
62709;SDS011;48770;51.624;5.886;2023-06-26T12:34:27;2.15;;;0.60;;
62709;SDS011;48770;51.624;5.886;2023-06-26T12:37:00;2.60;;;0.60;;
62709;SDS011;48770;51.624;5.886;2023-06-26T12:42:13;3.42;;;0.80;;
62709;SDS011;48770;51.624;5.886;2023-06-26T12:44:39;2.58;;;0.70;;
62709;SDS011;48770;51.624;5.886;2023-06-26T12:47:05;2.70;;;0.70;;
62709;SDS011;48770;51.624;5.886;2023-06-26T12:49:35;3.45;;;0.80;;
62709;SDS011;48770;51.624;5.886;2023-06-26T12:52:04;3.42;;;0.60;;
62709;SDS011;48770;51.624;5.886;2023-06-26T12:54:30;2.95;;;0.60;;
62709;SDS011;48770;51.624;5.886;2023-06-26T12:56:56;0.80;;;0.50;;
62709;SDS011;48770;51.624;5.886;2023-06-26T12:59:22;3.03;;;1.08;;
62709;SDS011;48770;51.624;5.886;2023-06-26T13:01:48;2.17;;;0.80;;
62709;SDS011;48770;51.624;5.886;2023-06-26T13:04:14;1.88;;;0.70;;
62709;SDS011;48770;51.624;5.886;2023-06-26T13:06:41;1.92;;;0.57;;
62709;SDS011;48770;51.624;5.886;2023-06-26T13:09:06;1.98;;;0.65;;
62709;SDS011;48770;51.624;5.886;2023-06-26T13:11:32;2.72;;;1.02;;
62709;SDS011;48770;51.624;5.886;2023-06-26T13:13:58;4.63;;;0.95;;
62709;SDS011;48770;51.624;5.886;2023-06-26T13:16:24;4.82;;;0.60;;
62709;SDS011;48770;51.624;5.886;2023-06-26T13:18:49;1.00;;;0.50;;
62709;SDS011;48770;51.624;5.886;2023-06-26T13:21:14;2.35;;;0.82;;
62709;SDS011;48770;51.624;5.886;2023-06-26T13:23:41;1.80;;;0.70;;
62709;SDS011;48770;51.624;5.886;2023-06-26T13:26:07;2.60;;;0.60;;
62709;SDS011;48770;51.624;5.886;2023-06-26T13:28:32;2.38;;;0.63;;
62709;SDS011;48770;51.624;5.886;2023-06-26T13:30:58;3.92;;;0.90;;
62709;SDS011;48770;51.624;5.886;2023-06-26T13:33:23;4.82;;;1.00;;
62709;SDS011;48770;51.624;5.886;2023-06-26T13:35:51;6.72;;;0.80;;
62709;SDS011;48770;51.624;5.886;2023-06-26T13:38:17;9.68;;;1.38;;
62709;SDS011;48770;51.624;5.886;2023-06-26T13:40:43;3.70;;;0.98;;
62709;SDS011;48770;51.624;5.886;2023-06-26T13:43:09;3.80;;;0.83;;
62709;SDS011;48770;51.624;5.886;2023-06-26T13:45:34;2.10;;;0.70;;
62709;SDS011;48770;51.624;5.886;2023-06-26T13:47:59;1.67;;;0.70;;
62709;SDS011;48770;51.624;5.886;2023-06-26T13:50:24;3.03;;;0.90;;
62709;SDS011;48770;51.624;5.886;2023-06-26T13:52:50;2.20;;;0.80;;
62709;SDS011;48770;51.624;5.886;2023-06-26T13:55:15;1.97;;;0.60;;
62709;SDS011;48770;51.624;5.886;2023-06-26T13:57:40;1.20;;;0.70;;
62709;SDS011;48770;51.624;5.886;2023-06-26T14:00:06;3.92;;;0.60;;
62709;SDS011;48770;51.624;5.886;2023-06-26T14:02:33;7.38;;;0.70;;
62709;SDS011;48770;51.624;5.886;2023-06-26T14:04:59;3.80;;;0.73;;
62709;SDS011;48770;51.624;5.886;2023-06-26T14:07:24;2.27;;;0.70;;
62709;SDS011;48770;51.624;5.886;2023-06-26T14:09:49;1.40;;;0.57;;
62709;SDS011;48770;51.624;5.886;2023-06-26T14:12:15;2.10;;;0.50;;
62709;SDS011;48770;51.624;5.886;2023-06-26T14:14:40;2.58;;;0.70;;
62709;SDS011;48770;51.624;5.886;2023-06-26T14:17:06;1.45;;;0.60;;
62709;SDS011;48770;51.624;5.886;2023-06-26T14:19:33;1.10;;;0.47;;
62709;SDS011;48770;51.624;5.886;2023-06-26T14:21:59;1.77;;;0.60;;
62709;SDS011;48770;51.624;5.886;2023-06-26T14:24:24;1.83;;;0.47;;
62709;SDS011;48770;51.624;5.886;2023-06-26T14:26:49;1.77;;;0.50;;
62709;SDS011;48770;51.624;5.886;2023-06-26T14:29:15;2.73;;;0.80;;
62709;SDS011;48770;51.624;5.886;2023-06-26T14:31:42;3.85;;;0.70;;
62709;SDS011;48770;51.624;5.886;2023-06-26T14:34:08;2.50;;;0.63;;
62709;SDS011;48770;51.624;5.886;2023-06-26T14:36:33;3.40;;;0.70;;
62709;SDS011;48770;51.624;5.886;2023-06-26T14:38:58;1.92;;;0.60;;
62709;SDS011;48770;51.624;5.886;2023-06-26T14:41:24;1.75;;;0.63;;
62709;SDS011;48770;51.624;5.886;2023-06-26T14:43:50;1.50;;;0.60;;
62709;SDS011;48770;51.624;5.886;2023-06-26T14:46:15;4.22;;;0.60;;
62709;SDS011;48770;51.624;5.886;2023-06-26T14:48:41;2.15;;;0.60;;
62709;SDS011;48770;51.624;5.886;2023-06-26T14:51:06;1.47;;;0.50;;
62709;SDS011;48770;51.624;5.886;2023-06-26T14:53:31;1.67;;;0.70;;
62709;SDS011;48770;51.624;5.886;2023-06-26T14:55:57;2.92;;;0.77;;
62709;SDS011;48770;51.624;5.886;2023-06-26T14:58:22;1.37;;;0.60;;